Time;durP1;ratioP1;P1;durP2;ratioP2;P2;SDS_P1;SDS_P2;PMS_P1;PMS_P2;Temp;Humidity;BMP_temperature;BMP_pressure;BME280_temperature;BME280_humidity;BME280_pressure;Samples;Min_cycle;Max_cycle;Signal;HPM_P1;HPM_P2
2022/09/16 00:01:18;;;;;;;;;;;;;;;22.52;52.98;100665.22;5096235;28;19969;-37
2022/09/16 00:03:44;;;;;;;;;;;;;;;22.52;52.91;100670.78;5082293;28;19932;-37
2022/09/16 00:06:26;;;;;;;;;;;;;;;22.52;52.96;100671.59;5074912;28;19943;-37
2022/09/16 00:08:53;;;;;;;;;;;;;;;22.52;52.97;100662.47;5081269;28;19974;-37
2022/09/16 00:11:19;;;;;;;;;;;;;;;22.52;52.90;100674.38;5098255;28;19972;-37
2022/09/16 00:13:45;;;;;;;;;;;;;;;22.52;52.85;100674.38;5100449;28;19928;-37
2022/09/16 00:16:13;;;;;;;;;;;;;;;22.52;52.93;100679.94;5077477;28;20434;-36
2022/09/16 00:18:38;;;;;;;;;;;;;;;22.53;52.85;100678.78;5096279;28;19931;-37
2022/09/16 00:21:06;;;;;;;;;;;;;;;22.52;52.89;100674.38;5097147;28;20523;-37
2022/09/16 00:23:31;;;;;;;;;;;;;;;22.53;52.99;100680.75;5097104;28;19928;-37
2022/09/16 00:25:57;;;;;;;;;;;;;;;22.51;53.00;100681.06;5096214;28;19928;-39
2022/09/16 00:28:22;;;;;;;;;;;;;;;22.50;52.95;100681.38;5101092;28;19932;-37
2022/09/16 00:30:48;;;;;;;;;;;;;;;22.49;53.01;100677.75;5095731;28;19924;-37
2022/09/16 00:33:14;;;;;;;;;;;;;;;;;;5096307;28;20354;-36
2022/09/16 00:35:39;;;;;;;;;;;;;;;;;;5094290;28;19938;-37
2022/09/16 00:38:04;;;;;;;;;;;;;;;;;;5097672;28;20027;-37
2022/09/16 00:40:30;;;;;;;;;;;;;;;22.50;52.92;100681.38;5101045;28;20010;-37
2022/09/16 00:42:55;;;;;;;;;;;;;;;;;;5079537;28;19932;-36
2022/09/16 00:45:22;;;;;;;;;;;;;;;22.49;52.86;100682.50;5100069;28;20065;-38
2022/09/16 00:47:49;;;;;;;;;;;;;;;22.49;52.94;100680.53;5091710;28;19932;-37
2022/09/16 00:50:22;;;;;;;;;;;;;;;22.49;52.96;100691.63;5099932;28;20030;-36
2022/09/16 00:52:48;;;;;;;;;;;;;;;22.49;52.95;100683.31;5097165;28;20003;-36
2022/09/16 00:55:16;;;;;;;;;;;;;;;22.49;52.79;100683.31;5098277;28;19931;-36
2022/09/16 00:57:42;;;;;;;;;;;;;;;22.50;52.90;100684.16;5095726;28;20022;-37
2022/09/16 01:00:10;;;;;;;;;;;;;;;22.50;52.87;100684.16;5098788;28;19985;-37
2022/09/16 01:02:36;;;;;;;;;;;;;;;;;;5097565;28;20050;-36
2022/09/16 01:05:04;;;;;;;;;;;;;;;22.49;53.00;100682.50;5097409;28;20281;-38
2022/09/16 01:07:39;;;;;;;;;;;;;;;22.50;52.82;100686.94;5077274;28;20010;-37
2022/09/16 01:10:05;;;;;;;;;;;;;;;22.49;52.75;100683.31;5094225;28;20003;-37
2022/09/16 01:12:30;;;;;;;;;;;;;;;22.49;52.78;100677.75;5079540;28;19931;-39
2022/09/16 01:14:57;;;;;;;;;;;;;;;22.47;52.77;100677.25;5078568;28;19993;-37
2022/09/16 01:20:18;;;;;;;;;;;;;;;22.49;52.87;100671.41;5180656;27;20379;-37
2022/09/16 01:25:42;;;;;;;;;;;;;;;22.49;52.74;100676.94;5175724;27;19941;-37
2022/09/16 01:30:59;;;;;;;;;;;;;;;22.49;52.71;100663.06;5159705;27;19925;-37
2022/09/16 01:33:29;;;;;;;;;;;;;;;22.46;52.96;100661.75;5157103;27;19967;-37
2022/09/16 01:35:59;;;;;;;;;;;;;;;22.47;52.71;100666.16;5152332;27;20066;-37
2022/09/16 01:38:29;;;;;;;;;;;;;;;22.48;52.72;100666.97;5151811;27;19989;-37
2022/09/16 01:41:00;;;;;;;;;;;;;;;22.47;52.76;100671.72;5153864;27;20018;-37
2022/09/16 01:43:32;;;;;;;;;;;;;;;22.47;52.90;100677.25;5157413;27;20018;-37
2022/09/16 01:45:59;;;;;;;;;;;;;;;22.46;52.74;100666.47;5152269;27;20066;-38
2022/09/16 01:48:32;;;;;;;;;;;;;;;22.46;52.82;100675.63;5157083;27;20010;-36
2022/09/16 01:51:02;;;;;;;;;;;;;;;22.47;52.77;100668.94;5158322;27;19970;-37
2022/09/16 01:53:47;;;;;;;;;;;;;;;22.49;52.79;100674.16;5137563;27;20010;-37
2022/09/16 01:56:33;;;;;;;;;;;;;;;22.46;52.78;100669.25;5143437;27;19998;-37
2022/09/16 01:59:02;;;;;;;;;;;;;;;22.47;52.73;100668.13;5138334;27;19982;-37
2022/09/16 02:01:47;;;;;;;;;;;;;;;22.47;52.84;100668.94;5152983;27;19923;-36
2022/09/16 02:04:15;;;;;;;;;;;;;;;22.47;52.71;100670.91;5141795;27;20021;-37
2022/09/16 02:06:42;;;;;;;;;;;;;;;22.48;52.70;100670.56;5154875;27;20383;-36
2022/09/16 02:09:10;;;;;;;;;;;;;;;22.46;52.87;100658.16;5155095;27;19974;-36
2022/09/16 02:11:36;;;;;;;;;;;;;;;22.47;52.65;100655.06;5156247;27;20390;-37
2022/09/16 02:14:03;;;;;;;;;;;;;;;22.47;52.74;100651.47;5154183;27;20030;-37
2022/09/16 02:16:31;;;;;;;;;;;;;;;22.46;52.78;100650.66;5137498;27;19997;-37
2022/09/16 02:19:00;;;;;;;;;;;;;;;22.46;52.67;100645.09;5159517;27;19970;-38
2022/09/16 02:21:26;;;;;;;;;;;;;;;22.46;52.67;100647.06;5154648;27;21097;-36
2022/09/16 02:23:53;;;;;;;;;;;;;;;22.45;52.78;100649.00;5136705;27;19931;-39
2022/09/16 02:26:20;;;;;;;;;;;;;;;22.46;52.64;100647.88;5154332;27;19983;-38
2022/09/16 02:28:46;;;;;;;;;;;;;;;22.46;52.72;100644.28;5138919;27;19970;-37
2022/09/16 02:31:12;;;;;;;;;;;;;;;22.46;52.70;100656.22;5157972;27;20284;-36
2022/09/16 02:33:42;;;;;;;;;;;;;;;22.46;52.69;100655.38;5157434;27;19950;-36
2022/09/16 02:36:08;;;;;;;;;;;;;;;22.46;52.66;100652.59;5155544;27;19970;-37
2022/09/16 02:38:35;;;;;;;;;;;;;;;22.46;52.73;100649.84;5150938;27;19976;-37
2022/09/16 02:41:00;;;;;;;;;;;;;;;22.45;52.65;100646.25;5149673;27;20009;-36
2022/09/16 02:43:26;;;;;;;;;;;;;;;22.46;52.63;100655.38;5139691;27;19947;-37
2022/09/16 02:49:05;;;;;;;;;;;;;;;22.44;52.65;100646.53;5175112;27;20006;-36
2022/09/16 02:51:36;;;;;;;;;;;;;;;22.45;52.67;100642.63;5160850;27;20022;-37
2022/09/16 02:56:48;;;;;;;;;;;;;;;22.43;52.71;100642.94;5167145;27;19925;-36
2022/09/16 02:59:13;;;;;;;;;;;;;;;22.44;52.65;100641.81;5167757;27;21271;-36
2022/09/16 03:01:40;;;;;;;;;;;;;;;22.45;52.58;100651.78;5163653;27;19927;-37
2022/09/16 03:04:07;;;;;;;;;;;;;;;22.45;52.71;100643.47;5165221;27;20013;-36
2022/09/16 03:06:35;;;;;;;;;;;;;;;22.44;52.66;100640.97;5163887;27;19922;-36
2022/09/16 03:09:00;;;;;;;;;;;;;;;22.43;52.73;100645.72;5163837;27;20022;-37
2022/09/16 03:11:30;;;;;;;;;;;;;;;22.44;52.63;100643.75;5169051;27;19923;-37
2022/09/16 03:14:15;;;;;;;;;;;;;;;22.45;52.65;100642.63;5166244;27;20026;-37
2022/09/16 03:16:44;;;;;;;;;;;;;;;22.45;52.58;100648.16;5148034;27;19967;-36
2022/09/16 03:19:14;;;;;;;;;;;;;;;22.44;52.72;100646.53;5167918;27;19923;-37
2022/09/16 03:21:43;;;;;;;;;;;;;;;22.44;52.63;100643.75;5163055;27;20014;-36
2022/09/16 03:24:11;;;;;;;;;;;;;;;22.44;52.57;100644.56;5165211;27;20335;-36
2022/09/16 03:26:44;;;;;;;;;;;;;;;22.42;52.69;100643.25;5164071;27;20013;-36
2022/09/16 03:29:29;;;;;;;;;;;;;;;22.43;52.69;100642.94;5165233;27;20006;-36
2022/09/16 03:32:06;;;;;;;;;;;;;;;22.42;52.79;100640.50;5150805;27;19970;-36
2022/09/16 03:34:36;;;;;;;;;;;;;;;22.43;52.59;100633.78;5165966;27;19966;-36
2022/09/16 03:37:03;;;;;;;;;;;;;;;22.43;52.68;100639.34;5146039;27;19962;-36
2022/09/16 03:39:29;;;;;;;;;;;;;;;22.43;52.53;100642.94;5146693;27;20430;-37
2022/09/16 03:41:58;;;;;;;;;;;;;;;22.44;52.56;100646.53;5167173;27;19927;-36
2022/09/16 03:44:39;;;;;;;;;;;;;;;22.44;52.69;100643.75;5151360;27;20462;-36
2022/09/16 03:47:06;;;;;;;;;;;;;;;22.43;52.60;100633.78;5138912;27;20014;-37
2022/09/16 03:49:31;;;;;;;;;;;;;;;22.43;52.61;100633.78;5127676;27;19970;-37
2022/09/16 03:51:57;;;;;;;;;;;;;;;22.43;52.55;100633.78;5144688;27;19934;-37
2022/09/16 03:54:22;;;;;;;;;;;;;;;22.44;52.58;100629.88;5146015;27;20389;-37
2022/09/16 03:56:48;;;;;;;;;;;;;;;22.44;52.54;100629.88;5139780;27;19946;-37
2022/09/16 03:59:14;;;;;;;;;;;;;;;22.43;52.68;100631.84;5145224;27;19930;-37
2022/09/16 04:01:39;;;;;;;;;;;;;;;22.44;52.55;100629.88;5145134;27;19924;-37
2022/09/16 04:04:05;;;;;;;;;;;;;;;22.43;52.60;100628.25;5127167;27;20293;-37
2022/09/16 04:06:30;;;;;;;;;;;;;;;22.42;52.53;100629.38;5139806;27;19923;-37
2022/09/16 04:08:58;;;;;;;;;;;;;;;22.42;52.65;100634.94;5132035;28;19935;-36
2022/09/16 04:11:23;;;;;;;;;;;;;;;22.41;52.66;100625.78;5129487;27;20013;-36
2022/09/16 04:13:49;;;;;;;;;;;;;;;22.42;52.63;100621.88;5131438;28;19930;-36
2022/09/16 04:16:18;;;;;;;;;;;;;;;22.41;52.69;100623.03;5128426;28;19942;-37
2022/09/16 04:18:43;;;;;;;;;;;;;;;22.40;52.57;100615.81;5130777;28;19923;-37
2022/09/16 04:21:09;;;;;;;;;;;;;;;22.42;52.64;100618.28;5134933;27;19923;-37
2022/09/16 04:23:34;;;;;;;;;;;;;;;22.43;52.67;100615.19;5132439;28;19928;-37
2022/09/16 04:26:01;;;;;;;;;;;;;;;22.40;52.52;100615.81;5129364;28;20293;-36
2022/09/16 04:28:26;;;;;;;;;;;;;;;22.41;52.54;100619.41;5112097;28;20018;-36
2022/09/16 04:30:52;;;;;;;;;;;;;;;22.40;52.37;100621.34;5131334;28;20131;-36
2022/09/16 04:33:17;;;;;;;;;;;;;;;22.40;52.16;100623.31;5131946;28;20068;-37
2022/09/16 04:35:43;;;;;;;;;;;;;;;22.39;51.93;100613.34;5131591;28;19923;-37
2022/09/16 04:38:09;;;;;;;;;;;;;;;22.39;52.01;100624.44;5110728;28;19923;-37
2022/09/16 04:40:34;;;;;;;;;;;;;;;22.38;51.94;100629.19;5130384;28;20277;-37
2022/09/16 04:43:00;;;;;;;;;;;;;;;22.39;52.00;100627.22;5130018;28;19931;-36
2022/09/16 04:45:25;;;;;;;;;;;;;;;22.39;52.03;100632.78;5129708;28;19932;-37
2022/09/16 04:47:54;;;;;;;;;;;;;;;22.37;52.00;100622.00;5127860;28;19942;-36
2022/09/16 04:50:20;;;;;;;;;;;;;;;22.37;52.02;100626.72;5128848;27;19977;-38
2022/09/16 04:52:45;;;;;;;;;;;;;;;22.37;52.21;100624.78;5131498;28;19924;-36
2022/09/16 04:55:11;;;;;;;;;;;;;;;22.40;51.97;100620.53;5132604;28;19937;-36
2022/09/16 04:57:37;;;;;;;;;;;;;;;22.39;52.02;100624.44;5128000;28;20318;-37
2022/09/16 05:00:02;;;;;;;;;;;;;;;22.38;52.18;100625.59;5129613;28;19942;-37
2022/09/16 05:02:29;;;;;;;;;;;;;;;22.38;52.12;100617.25;5108990;28;19930;-37
2022/09/16 05:04:54;;;;;;;;;;;;;;;22.38;52.06;100615.31;5131049;28;19971;-37
2022/09/16 05:07:20;;;;;;;;;;;;;;;22.40;52.28;100617.75;5130349;28;19938;-38
2022/09/16 05:09:45;;;;;;;;;;;;;;;22.40;52.17;100621.34;5131148;28;19924;-36
2022/09/16 05:12:11;;;;;;;;;;;;;;;22.40;52.08;100617.75;5129238;28;20293;-37
2022/09/16 05:14:37;;;;;;;;;;;;;;;22.40;52.07;100623.31;5128982;28;19931;-36
2022/09/16 05:17:02;;;;;;;;;;;;;;;22.39;51.93;100625.28;5120010;28;19931;-36
2022/09/16 05:19:28;;;;;;;;;;;;;;;22.37;51.38;100616.44;5119907;27;19930;-36
2022/09/16 05:21:54;;;;;;;;;;;;;;;21.84;50.94;100607.78;5123540;28;19932;-44
2022/09/16 05:24:19;;;;;;;;;;;;;;;22.12;50.83;100616.94;5121079;28;20388;-37
2022/09/16 05:26:45;;;;;;;;;;;;;;;22.25;50.62;100621.69;5101276;27;19932;-37
2022/09/16 05:29:12;;;;;;;;;;;;;;;22.28;49.87;100619.13;5126034;28;19927;-37
2022/09/16 05:31:38;;;;;;;;;;;;;;;22.33;49.79;100622.94;5123011;28;20038;-40
2022/09/16 05:34:05;;;;;;;;;;;;;;;22.33;49.49;100617.38;5120808;28;20341;-37
2022/09/16 05:36:32;;;;;;;;;;;;;;;22.32;48.98;100629.59;5104863;28;20009;-37
2022/09/16 05:38:58;;;;;;;;;;;;;;;22.35;49.44;100626.19;5106941;28;20154;-37
2022/09/16 05:41:44;;;;;;;;;;;;;;;22.34;49.20;100619.84;5097716;27;19923;-37
2022/09/16 05:44:09;;;;;;;;;;;;;;;22.37;49.71;100624.78;5104598;28;19931;-36
2022/09/16 05:46:35;;;;;;;;;;;;;;;22.38;49.72;100637.50;5119457;27;19931;-37
2022/09/16 05:49:01;;;;;;;;;;;;;;;22.38;49.92;100625.59;5102583;28;20338;-36
2022/09/16 05:51:26;;;;;;;;;;;;;;;22.39;49.87;100630.81;5123757;27;19931;-38
2022/09/16 05:53:52;;;;;;;;;;;;;;;22.38;49.83;100636.69;5099829;28;20433;-39
2022/09/16 05:56:19;;;;;;;;;;;;;;;22.38;49.71;100625.59;5099208;28;19931;-38
2022/09/16 05:58:44;;;;;;;;;;;;;;;22.37;49.65;100624.78;5109452;27;19927;-38
2022/09/16 06:01:12;;;;;;;;;;;;;;;22.38;49.39;100633.91;5112494;27;19931;-37
2022/09/16 06:03:38;;;;;;;;;;;;;;;22.39;49.38;100635.53;5089780;28;20864;-39
2022/09/16 06:06:06;;;;;;;;;;;;;;;22.39;49.40;100630.00;5098157;27;20053;-37
2022/09/16 06:08:32;;;;;;;;;;;;;;;22.37;49.27;100633.09;5115230;27;20026;-37
2022/09/16 06:10:59;;;;;;;;;;;;;;;22.35;48.82;100634.53;5101336;27;20010;-36
2022/09/16 06:13:25;;;;;;;;;;;;;;;22.36;48.54;100633.38;5115035;27;20373;-39
2022/09/16 06:15:53;;;;;;;;;;;;;;;22.34;48.42;100635.66;5113188;28;21225;-40
2022/09/16 06:18:19;;;;;;;;;;;;;;;22.35;48.73;100635.34;5118877;27;20389;-41
2022/09/16 06:20:46;;;;;;;;;;;;;;;22.34;48.38;100636.47;5115296;27;19962;-39
2022/09/16 06:23:11;;;;;;;;;;;;;;;22.32;47.73;100638.72;5119839;28;20386;-39
2022/09/16 06:25:37;;;;;;;;;;;;;;;22.12;47.39;100645.53;5104375;28;19928;-40
2022/09/16 06:28:03;;;;;;;;;;;;;;;22.26;47.21;100638.00;5103281;28;20321;-42
2022/09/16 06:30:28;;;;;;;;;;;;;;;22.27;47.06;100645.19;5118804;27;19976;-39
2022/09/16 06:32:56;;;;;;;;;;;;;;;22.29;46.75;100640.19;5117564;27;20016;-39
2022/09/16 06:35:22;;;;;;;;;;;;;;;22.33;47.56;100642.34;5124608;28;20010;-40
2022/09/16 06:37:48;;;;;;;;;;;;;;;22.32;47.30;100649.00;5116458;28;19962;-39
2022/09/16 06:40:13;;;;;;;;;;;;;;;22.33;47.43;100637.63;5122218;28;19935;-38
2022/09/16 06:42:39;;;;;;;;;;;;;;;22.35;47.84;100629.78;5118410;28;20657;-40
2022/09/16 06:45:05;;;;;;;;;;;;;;;22.37;47.97;100624.78;5123197;28;19923;-41
2022/09/16 06:47:32;;;;;;;;;;;;;;;22.37;47.68;100630.31;5110263;27;19938;-39
2022/09/16 06:49:58;;;;;;;;;;;;;;;22.39;48.39;100635.53;5115846;27;20035;-38
2022/09/16 06:52:23;;;;;;;;;;;;;;;22.37;48.08;100632.28;5098571;28;20516;-41
2022/09/16 06:54:49;;;;;;;;;;;;;;;22.38;48.32;100634.72;5093391;28;20529;-39
2022/09/16 06:57:17;;;;;;;;;;;;;;;22.38;47.65;100633.91;5116910;27;20067;-42
2022/09/16 06:59:42;;;;;;;;;;;;;;;22.36;48.00;100634.19;5117021;28;20058;-40
2022/09/16 07:02:09;;;;;;;;;;;;;;;22.38;48.24;100622.81;5108347;28;19931;-39
2022/09/16 07:04:34;;;;;;;;;;;;;;;22.37;48.72;100630.31;5091661;28;19931;-39
2022/09/16 07:07:00;;;;;;;;;;;;;;;22.39;48.35;100627.22;5107614;28;20014;-39
2022/09/16 07:09:41;;;;;;;;;;;;;;;21.94;45.81;100627.81;5113144;27;19931;-38
2022/09/16 07:12:07;;;;;;;;;;;;;;;22.20;46.16;100633.72;5097347;28;19939;-39
2022/09/16 07:14:32;;;;;;;;;;;;;;;22.28;45.93;100632.19;5098178;28;19979;-42
2022/09/16 07:16:59;;;;;;;;;;;;;;;21.82;45.97;100646.06;5112464;28;19928;-41
2022/09/16 07:19:25;;;;;;;;;;;;;;;22.11;45.84;100643.03;5116566;28;19930;-39
2022/09/16 07:21:50;;;;;;;;;;;;;;;22.27;46.10;100652.69;5099436;28;19923;-39
2022/09/16 07:24:16;;;;;;;;;;;;;;;22.30;46.24;100649.31;5121132;28;19962;-38
2022/09/16 07:26:42;;;;;;;;;;;;;;;22.32;46.21;100658.13;5097715;28;19931;-40
2022/09/16 07:29:09;;;;;;;;;;;;;;;22.30;46.22;100652.09;5118472;28;20030;-39
2022/09/16 07:31:36;;;;;;;;;;;;;;;22.31;46.23;100655.69;5100200;27;20015;-41
2022/09/16 07:34:02;;;;;;;;;;;;;;;22.32;46.31;100651.78;5095251;28;20068;-39
2022/09/16 07:36:32;;;;;;;;;;;;;;;22.34;46.64;100666.19;5097270;27;19923;-40
2022/09/16 07:38:58;;;;;;;;;;;;;;;22.31;46.21;100658.47;5117828;27;20068;-40
2022/09/16 07:41:25;;;;;;;;;;;;;;;22.33;46.96;100661.75;5102839;28;19923;-40
2022/09/16 07:43:52;;;;;;;;;;;;;;;22.38;47.31;100667.19;5125010;27;20010;-39
2022/09/16 07:46:18;;;;;;;;;;;;;;;22.37;46.86;100660.03;5102661;27;20211;-41
2022/09/16 07:48:44;;;;;;;;;;;;;;;22.35;47.11;100659.50;5123294;27;19939;-40
2022/09/16 07:51:11;;;;;;;;;;;;;;;22.43;46.89;100656.00;5105897;27;20015;-41
2022/09/16 07:53:37;;;;;;;;;;;;;;;22.41;47.13;100655.47;5123173;27;20349;-40
2022/09/16 07:56:04;;;;;;;;;;;;;;;22.37;47.05;100658.06;5123221;28;19928;-39
2022/09/16 07:58:30;;;;;;;;;;;;;;;22.40;47.16;100667.69;5104852;28;20014;-40
2022/09/16 08:00:56;;;;;;;;;;;;;;;22.40;46.80;100664.94;5108301;28;20312;-40
2022/09/16 08:03:28;;;;;;;;;;;;;;;22.40;47.49;100664.94;5103130;27;19924;-41
2022/09/16 08:05:58;;;;;;;;;;;;;;;22.41;47.48;100674.88;5118401;27;19928;-41
2022/09/16 08:08:23;;;;;;;;;;;;;;;22.41;47.56;100678.50;5103247;27;20014;-40
2022/09/16 08:10:53;;;;;;;;;;;;;;;22.40;47.84;100674.06;5117047;28;19931;-40
2022/09/16 08:13:19;;;;;;;;;;;;;;;22.44;48.01;100677.88;5100923;28;20349;-39
2022/09/16 08:15:45;;;;;;;;;;;;;;;22.44;48.05;100682.59;5099664;28;20365;-40
2022/09/16 08:18:11;;;;;;;;;;;;;;;22.45;48.07;100687.00;5115181;28;19961;-39
2022/09/16 08:20:36;;;;;;;;;;;;;;;22.42;47.78;100685.69;5120628;28;19969;-39
2022/09/16 08:23:02;;;;;;;;;;;;;;;22.43;47.95;100686.53;5126024;28;20292;-39
2022/09/16 08:25:27;;;;;;;;;;;;;;;22.43;47.97;100689.28;5121091;28;20344;-40
2022/09/16 08:27:53;;;;;;;;;;;;;;;22.42;47.68;100685.69;5119281;28;19930;-39
2022/09/16 08:30:21;;;;;;;;;;;;;;;22.43;48.07;100684.56;5123511;27;20254;-39
2022/09/16 08:32:47;;;;;;;;;;;;;;;22.44;48.29;100679.84;5098526;28;19938;-43
2022/09/16 08:35:13;;;;;;;;;;;;;;;22.44;48.06;100686.19;5110123;28;21073;-40
2022/09/16 08:37:39;;;;;;;;;;;;;;;22.44;47.94;100680.66;5108256;28;19931;-42
2022/09/16 08:40:05;;;;;;;;;;;;;;;22.43;48.11;100681.78;5112365;28;19931;-41
2022/09/16 08:42:38;;;;;;;;;;;;;;;22.43;47.40;100686.53;5096501;28;19994;-43
2022/09/16 08:45:11;;;;;;;;;;;;;;;22.10;46.45;100681.00;5097780;28;20011;-39
2022/09/16 08:47:41;;;;;;;;;;;;;;;22.28;45.84;100691.25;5094433;28;20687;-40
2022/09/16 08:50:11;;;;;;;;;;;;;;;22.34;45.47;100693.91;5114529;27;20062;-39
2022/09/16 08:52:37;;;;;;;;;;;;;;;22.35;46.02;100696.38;5121791;27;20413;-40
2022/09/16 08:55:06;;;;;;;;;;;;;;;22.37;46.27;100694.13;5122298;28;19931;-40
2022/09/16 08:57:33;;;;;;;;;;;;;;;22.41;46.75;100692.38;5098141;28;20120;-41
2022/09/16 09:00:02;;;;;;;;;;;;;;;22.41;46.61;100691.53;5100447;28;20010;-39
2022/09/16 09:05:13;;;;;;;;;;;;;;;22.48;47.20;100694.72;5167628;27;20041;-37
2022/09/16 09:07:45;;;;;;;;;;;;;;;22.48;46.31;100692.78;5117777;27;20496;-38
2022/09/16 09:10:18;;;;;;;;;;;;;;;22.34;45.37;100699.47;5136627;27;19989;-37
2022/09/16 09:12:48;;;;;;;;;;;;;;;22.40;45.46;100689.91;5135750;27;20464;-37
2022/09/16 09:15:35;;;;;;;;;;;;;;;22.41;45.71;100695.16;5111678;27;19931;-37
2022/09/16 09:18:20;;;;;;;;;;;;;;;22.43;46.08;100698.44;5124242;27;19974;-42
2022/09/16 09:20:54;;;;;;;;;;;;;;;22.42;45.50;100698.75;5112446;27;19932;-44
2022/09/16 09:23:26;;;;;;;;;;;;;;;22.42;46.14;100704.31;5136423;27;20018;-40
2022/09/16 09:25:56;;;;;;;;;;;;;;;22.43;46.22;100701.22;5137318;27;19942;-40
2022/09/16 09:28:30;;;;;;;;;;;;;;;22.44;46.36;100710.34;5139223;27;20644;-39
2022/09/16 09:30:59;;;;;;;;;;;;;;;22.45;46.38;100712.00;5119812;27;20010;-40
2022/09/16 09:33:32;;;;;;;;;;;;;;;22.45;46.64;100700.88;5139652;27;20010;-40
2022/09/16 09:36:16;;;;;;;;;;;;;;;22.47;46.92;100704.19;5134607;27;19939;-42
2022/09/16 09:38:47;;;;;;;;;;;;;;;22.47;46.26;100698.66;5129198;27;19934;-40
2022/09/16 09:41:14;;;;;;;;;;;;;;;22.49;46.61;100690.81;5126935;27;20589;-41
2022/09/16 09:43:45;;;;;;;;;;;;;;;22.49;46.42;100682.50;5134103;27;19934;-43
2022/09/16 09:46:22;;;;;;;;;;;;;;;22.50;46.97;100692.50;5109920;27;20096;-40
2022/09/16 09:48:50;;;;;;;;;;;;;;;22.48;46.53;100675.31;5128883;27;19931;-41
2022/09/16 09:51:19;;;;;;;;;;;;;;;22.48;46.53;100681.69;5136855;27;19942;-39
2022/09/16 09:53:47;;;;;;;;;;;;;;;22.46;46.63;100683.94;5133934;27;20484;-39
2022/09/16 09:56:15;;;;;;;;;;;;;;;22.45;46.47;100679.53;5135791;27;20453;-40
2022/09/16 09:58:58;;;;;;;;;;;;;;;22.44;46.23;100669.56;5120291;27;20057;-40
2022/09/16 10:01:24;;;;;;;;;;;;;;;22.46;46.47;100677.59;5118937;27;20014;-41
2022/09/16 10:03:50;;;;;;;;;;;;;;;22.46;45.97;100683.13;5138613;27;19930;-41
2022/09/16 10:06:16;;;;;;;;;;;;;;;22.44;46.44;100675.09;5121873;27;20966;-40
2022/09/16 10:08:45;;;;;;;;;;;;;;;22.43;46.33;100678.19;5142046;27;20218;-41
2022/09/16 10:11:16;;;;;;;;;;;;;;;22.44;46.07;100682.59;5131650;27;19927;-39
2022/09/16 10:13:50;;;;;;;;;;;;;;;22.45;46.06;100681.47;5137834;27;20018;-41
2022/09/16 10:16:19;;;;;;;;;;;;;;;22.44;45.89;100685.38;5124120;27;19924;-42
2022/09/16 10:18:52;;;;;;;;;;;;;;;22.45;46.52;100673.13;5103972;28;21263;-38
2022/09/16 10:21:18;;;;;;;;;;;;;;;22.43;45.77;100676.25;5110955;28;20452;-40
2022/09/16 10:23:58;;;;;;;;;;;;;;;22.41;44.73;100674.88;5127619;28;20065;-40
2022/09/16 10:26:25;;;;;;;;;;;;;;;22.44;45.04;100683.41;5120068;27;19971;-38
2022/09/16 10:28:59;;;;;;;;;;;;;;;22.45;45.16;100687.88;5106633;28;20357;-41
2022/09/16 10:31:26;;;;;;;;;;;;;;;22.44;45.48;100686.19;5120415;28;19931;-40
2022/09/16 10:33:58;;;;;;;;;;;;;;;22.42;45.31;100673.78;5103135;28;20365;-38
2022/09/16 10:36:25;;;;;;;;;;;;;;;22.45;45.86;100675.91;5112382;27;20037;-40
2022/09/16 10:38:52;;;;;;;;;;;;;;;22.45;45.90;100668.44;5116949;28;20063;-42
2022/09/16 10:41:26;;;;;;;;;;;;;;;22.48;46.22;100672.53;5117440;27;19928;-40
2022/09/16 10:43:53;;;;;;;;;;;;;;;22.49;46.37;100668.63;5098408;28;19931;-38
2022/09/16 10:46:19;;;;;;;;;;;;;;;22.49;46.84;100663.06;5090094;28;20100;-39
2022/09/16 10:48:46;;;;;;;;;;;;;;;22.50;46.90;100678.63;5095113;28;19952;-39
2022/09/16 10:51:20;;;;;;;;;;;;;;;22.52;47.18;100676.34;5110630;28;19931;-40
2022/09/16 10:53:45;;;;;;;;;;;;;;;;;;5104082;28;19931;-40
2022/09/16 10:56:19;;;;;;;;;;;;;;;22.52;47.01;100670.78;5118452;28;20017;-40
2022/09/16 10:58:45;;;;;;;;;;;;;;;22.51;47.19;100666.38;5123021;27;20427;-39
2022/09/16 11:01:14;;;;;;;;;;;;;;;22.52;47.22;100659.69;5099199;28;19967;-41
2022/09/16 11:04:02;;;;;;;;;;;;;;;22.52;47.09;100660.50;5115668;27;19931;-40
2022/09/16 11:06:34;;;;;;;;;;;;;;;22.53;46.68;100662.13;5099880;28;19929;-40
2022/09/16 11:09:05;;;;;;;;;;;;;;;22.52;46.71;100657.72;5098065;28;20025;-39
2022/09/16 11:11:50;;;;;;;;;;;;;;;22.48;46.17;100667.81;5105351;28;20429;-41
2022/09/16 11:14:19;;;;;;;;;;;;;;;22.47;46.15;100668.13;5099949;28;20019;-39
2022/09/16 11:16:45;;;;;;;;;;;;;;;;;;5112293;28;19938;-38
2022/09/16 11:19:13;;;;;;;;;;;;;;;22.48;45.74;100666.97;5120722;27;19927;-39
2022/09/16 11:21:48;;;;;;;;;;;;;;;22.49;45.87;100663.88;5120162;28;20084;-40
2022/09/16 11:24:18;;;;;;;;;;;;;;;22.50;46.13;100667.50;5101558;28;20018;-39
2022/09/16 11:27:03;;;;;;;;;;;;;;;22.49;46.24;100660.28;5119957;27;20022;-38
2022/09/16 11:29:37;;;;;;;;;;;;;;;22.53;46.97;100666.88;5123816;28;20342;-41
2022/09/16 11:32:09;;;;;;;;;;;;;;;22.53;46.89;100658.53;5119615;28;20443;-39
2022/09/16 11:34:41;;;;;;;;;;;;;;;22.53;46.66;100666.88;5112685;27;20437;-40
2022/09/16 11:37:12;;;;;;;;;;;;;;;22.53;47.16;100672.41;5097915;28;20027;-44
2022/09/16 11:42:23;;;;;;;;;;;;;;;22.55;47.29;100734.00;5151466;27;20010;-40
2022/09/16 11:45:07;;;;;;;;;;;;;;;22.52;46.93;100731.84;5141906;27;20017;-41
2022/09/16 11:47:36;;;;;;;;;;;;;;;22.51;47.01;100744.91;5116252;27;19947;-38
2022/09/16 11:53:15;;;;;;;;;;;;;;;22.53;47.80;100747.34;5153883;27;19949;-37
2022/09/16 11:55:44;;;;;;;;;;;;;;;;;;5139205;27;19987;-40
2022/09/16 11:58:30;;;;;;;;;;;;;;;22.49;47.44;100741.59;5153189;27;20475;-38
2022/09/16 12:00:58;;;;;;;;;;;;;;;22.50;47.66;100750.75;5122312;27;20009;-37
2022/09/16 12:03:27;;;;;;;;;;;;;;;22.49;47.54;100741.59;5153478;27;20087;-39
2022/09/16 12:05:55;;;;;;;;;;;;;;;22.49;47.47;100724.13;5151417;27;19970;-40
2022/09/16 12:08:22;;;;;;;;;;;;;;;22.48;47.57;100726.06;5137667;27;19971;-38
2022/09/16 12:10:50;;;;;;;;;;;;;;;22.47;47.76;100726.41;5153206;27;19931;-39
2022/09/16 12:13:19;;;;;;;;;;;;;;;22.48;47.70;100728.84;5133306;27;19983;-38
2022/09/16 12:15:50;;;;;;;;;;;;;;;22.50;47.52;100728.56;5136193;27;19988;-38
2022/09/16 12:18:19;;;;;;;;;;;;;;;22.49;47.50;100724.13;5152093;27;20021;-37
2022/09/16 12:20:46;;;;;;;;;;;;;;;22.47;47.58;100720.84;5132813;27;20044;-38
2022/09/16 12:23:15;;;;;;;;;;;;;;;22.47;46.53;100712.53;5151445;27;20401;-37
2022/09/16 12:25:43;;;;;;;;;;;;;;;22.46;46.78;100720.03;5132183;27;20018;-36
2022/09/16 12:28:14;;;;;;;;;;;;;;;22.45;46.54;100718.38;5138102;27;19974;-37
2022/09/16 12:30:41;;;;;;;;;;;;;;;22.43;46.86;100703.97;5151953;27;20019;-39
2022/09/16 12:33:11;;;;;;;;;;;;;;;22.45;46.71;100703.66;5136292;27;19982;-37
2022/09/16 12:35:38;;;;;;;;;;;;;;;22.44;46.75;100710.34;5150301;27;20416;-37
2022/09/16 12:38:04;;;;;;;;;;;;;;;22.45;46.84;100712.84;5133857;27;19962;-36
2022/09/16 12:40:33;;;;;;;;;;;;;;;22.47;47.26;100709.75;5134565;27;19969;-37
2022/09/16 12:43:03;;;;;;;;;;;;;;;22.47;47.07;100705.00;5154629;27;19934;-38
2022/09/16 12:45:49;;;;;;;;;;;;;;;22.45;47.15;100712.84;5155621;27;20022;-44
2022/09/16 12:48:14;;;;;;;;;;;;;;;;;;5133460;27;20048;-37
2022/09/16 12:51:00;;;;;;;;;;;;;;;22.52;47.90;100718.78;5151163;27;19923;-37
2022/09/16 12:53:48;;;;;;;;;;;;;;;22.48;47.91;100716.94;5137634;27;20052;-38
2022/09/16 12:56:33;;;;;;;;;;;;;;;22.47;48.10;100707.78;5136749;27;20037;-37
2022/09/16 12:59:19;;;;;;;;;;;;;;;22.47;48.01;100706.97;5133740;27;20009;-42
2022/09/16 13:01:47;;;;;;;;;;;;;;;22.46;47.86;100706.16;5150061;27;20277;-38
2022/09/16 13:04:17;;;;;;;;;;;;;;;22.45;47.68;100704.50;5134994;27;20324;-38
2022/09/16 13:06:45;;;;;;;;;;;;;;;22.46;47.80;100708.09;5118397;27;20444;-37
2022/09/16 13:09:14;;;;;;;;;;;;;;;22.45;47.67;100700.88;5139953;27;20341;-37
2022/09/16 13:11:39;;;;;;;;;;;;;;;22.46;47.88;100699.78;5122372;27;20062;-37
2022/09/16 13:14:33;;;;;;;;;;;;;;;22.45;47.89;100698.97;5107563;27;19928;-37